createdAt,value
2023-08-30T00:00:55.821Z,1001.01
2023-08-30T00:04:03.924Z,1000.95
2023-08-30T00:07:11.995Z,1000.93
2023-08-30T00:10:11.738Z,1000.89
2023-08-30T00:13:20.702Z,1000.93
2023-08-30T00:16:28.221Z,1000.89
2023-08-30T00:19:35.310Z,1000.96
2023-08-30T00:22:44.100Z,1000.93
2023-08-30T00:25:52.388Z,1001.00
2023-08-30T00:28:59.053Z,1001.03
2023-08-30T00:32:06.726Z,1000.99
2023-08-30T00:35:17.546Z,1001.09
2023-08-30T00:38:24.285Z,1001.10
2023-08-30T00:41:32.096Z,1001.05
2023-08-30T00:44:40.945Z,1001.06
2023-08-30T00:47:48.187Z,1001.11
2023-08-30T00:50:55.892Z,1001.14
2023-08-30T00:54:05.079Z,1001.09
2023-08-30T00:57:11.977Z,1001.12
2023-08-30T01:00:19.523Z,1001.12
2023-08-30T01:03:28.060Z,1001.05
2023-08-30T01:06:35.495Z,1001.02
2023-08-30T01:09:42.951Z,1001.05
2023-08-30T01:12:48.408Z,1001.03
2023-08-30T01:15:55.654Z,1000.94
2023-08-30T01:19:02.958Z,1000.86
2023-08-30T01:22:11.688Z,1000.87
2023-08-30T01:25:19.296Z,1000.93
2023-08-30T01:28:26.377Z,1000.86
2023-08-30T01:31:33.508Z,1000.86
2023-08-30T01:34:42.391Z,1000.89
2023-08-30T01:37:49.526Z,1000.92
2023-08-30T01:40:56.615Z,1000.95
2023-08-30T01:44:05.436Z,1000.90
2023-08-30T01:47:13.118Z,1000.88
2023-08-30T01:50:20.357Z,1000.93
2023-08-30T01:53:30.097Z,1000.93
2023-08-30T01:56:36.959Z,1000.98
2023-08-30T01:59:44.608Z,1001.01
2023-08-30T02:02:53.836Z,1000.95
2023-08-30T02:06:01.673Z,1001.01
2023-08-30T02:09:08.989Z,1000.99
2023-08-30T02:12:16.794Z,1001.03
2023-08-30T02:15:26.138Z,1000.98
2023-08-30T02:18:35.129Z,1001.01
2023-08-30T02:21:42.452Z,1001.01
2023-08-30T02:24:51.246Z,1001.03
2023-08-30T02:27:59.093Z,1001.06
2023-08-30T02:31:06.382Z,1001.01
2023-08-30T02:34:15.300Z,1001.06
2023-08-30T02:37:22.803Z,1000.96
2023-08-30T02:40:29.591Z,1000.97
2023-08-30T02:43:39.469Z,1000.91
2023-08-30T02:46:46.642Z,1000.86
2023-08-30T02:49:54.012Z,1000.88
2023-08-30T02:53:03.220Z,1000.86
2023-08-30T02:56:10.649Z,1000.80
2023-08-30T02:59:18.356Z,1000.82
2023-08-30T03:02:26.359Z,1000.93
2023-08-30T03:05:35.116Z,1000.88
2023-08-30T03:08:42.348Z,1000.76
2023-08-30T03:11:49.857Z,1000.72
2023-08-30T03:14:59.341Z,1000.77
2023-08-30T03:18:08.072Z,1000.76
2023-08-30T03:21:16.127Z,1000.77
2023-08-30T03:24:25.222Z,1000.78
2023-08-30T03:27:32.413Z,1000.84
2023-08-30T03:30:40.188Z,1000.85
2023-08-30T03:33:49.588Z,1000.81
2023-08-30T03:36:56.798Z,1000.73
2023-08-30T03:40:04.443Z,1000.77
2023-08-30T03:43:12.029Z,1000.68
2023-08-30T03:46:20.567Z,1000.67
2023-08-30T03:49:28.093Z,1000.67
2023-08-30T03:52:35.690Z,1000.69
2023-08-30T03:55:44.473Z,1000.66
2023-08-30T03:58:52.674Z,1000.64
2023-08-30T04:01:59.697Z,1000.65
2023-08-30T04:05:08.249Z,1000.57
2023-08-30T04:08:15.727Z,1000.51
2023-08-30T04:11:22.511Z,1000.56
2023-08-30T04:14:31.063Z,1000.54
2023-08-30T04:17:38.287Z,1000.52
2023-08-30T04:20:45.233Z,1000.43
2023-08-30T04:23:52.057Z,1000.39
2023-08-30T04:27:01.174Z,1000.41
2023-08-30T04:30:07.941Z,1000.43
2023-08-30T04:33:14.964Z,1000.35
2023-08-30T04:36:23.542Z,1000.31
2023-08-30T04:39:30.567Z,1000.32
2023-08-30T04:42:37.296Z,1000.34
2023-08-30T04:45:47.733Z,1000.41
2023-08-30T04:48:55.540Z,1000.33
2023-08-30T04:52:02.136Z,1000.38
2023-08-30T04:55:11.164Z,1000.42
2023-08-30T04:58:19.039Z,1000.39
2023-08-30T05:01:25.707Z,1000.48
2023-08-30T05:04:34.537Z,1000.50
2023-08-30T05:07:41.925Z,1000.54
2023-08-30T05:10:48.985Z,1000.51
2023-08-30T05:13:56.371Z,1000.40
2023-08-30T05:17:05.361Z,1000.41
2023-08-30T05:20:12.351Z,1000.34
2023-08-30T05:23:19.678Z,1000.32
2023-08-30T05:26:27.827Z,1000.22
2023-08-30T05:29:35.328Z,1000.24
2023-08-30T05:32:42.623Z,1000.17
2023-08-30T05:35:51.546Z,1000.19
2023-08-30T05:38:58.889Z,1000.22
2023-08-30T05:42:06.869Z,1000.26
2023-08-30T05:45:16.307Z,1000.26
2023-08-30T05:48:23.973Z,1000.15
2023-08-30T05:51:31.413Z,1000.11
2023-08-30T05:54:38.516Z,1000.12
2023-08-30T05:57:47.227Z,1000.13
2023-08-30T06:00:54.286Z,1000.06
2023-08-30T06:04:01.964Z,1000.09
2023-08-30T06:07:10.517Z,1000.05
2023-08-30T06:10:17.549Z,1000.05
2023-08-30T06:13:25.428Z,999.98
2023-08-30T06:16:33.495Z,1000.04
2023-08-30T06:19:41.381Z,1000.11
2023-08-30T06:22:48.396Z,1000.18
2023-08-30T06:25:56.946Z,1000.16
2023-08-30T06:29:05.329Z,1000.02
2023-08-30T06:32:12.710Z,1000.01
2023-08-30T06:35:20.303Z,1000.03
2023-08-30T06:38:29.179Z,1000.03
2023-08-30T06:41:37.191Z,999.99
2023-08-30T06:44:44.499Z,1000.00
2023-08-30T06:47:52.947Z,999.92
2023-08-30T06:51:00.334Z,999.84
2023-08-30T06:54:07.671Z,999.83
2023-08-30T06:57:16.696Z,999.81
2023-08-30T07:00:24.376Z,999.79
2023-08-30T07:03:31.101Z,999.85
2023-08-30T07:06:40.124Z,999.74
2023-08-30T07:09:47.159Z,999.79
2023-08-30T07:12:54.325Z,999.81
2023-08-30T07:16:01.824Z,999.84
2023-08-30T07:19:11.096Z,999.83
2023-08-30T07:22:19.078Z,999.81
2023-08-30T07:25:27.022Z,999.76
2023-08-30T07:29:00.358Z,999.69
2023-08-30T07:31:04.580Z,999.71
2023-08-30T07:34:12.501Z,999.71
2023-08-30T07:37:20.610Z,999.68
2023-08-30T07:40:28.248Z,999.73
2023-08-30T07:43:35.327Z,999.76
2023-08-30T07:46:43.884Z,999.75
2023-08-30T07:49:51.264Z,999.68
2023-08-30T07:52:58.751Z,999.76
2023-08-30T07:56:05.772Z,999.68
2023-08-30T07:59:14.368Z,999.65
2023-08-30T08:02:21.957Z,999.64
2023-08-30T08:05:28.482Z,999.64
2023-08-30T08:08:37.933Z,999.65
2023-08-30T08:11:45.138Z,999.63
2023-08-30T08:14:53.167Z,999.62
2023-08-30T08:18:02.454Z,999.62
2023-08-30T08:21:10.060Z,999.57
2023-08-30T08:24:17.852Z,999.63
2023-08-30T08:27:27.696Z,999.58
2023-08-30T08:30:34.625Z,999.56
2023-08-30T08:33:41.758Z,999.52
2023-08-30T08:36:48.780Z,999.55
2023-08-30T08:39:57.682Z,999.45
2023-08-30T08:43:04.512Z,999.42
2023-08-30T08:46:12.176Z,999.42
2023-08-30T08:49:20.741Z,999.43
2023-08-30T08:52:32.970Z,999.39
2023-08-30T08:55:32.092Z,999.38
2023-08-30T08:58:40.599Z,999.38
2023-08-30T09:01:48.140Z,999.35
2023-08-30T09:04:55.345Z,999.37
2023-08-30T09:08:04.267Z,999.37
2023-08-30T09:11:11.096Z,999.38
2023-08-30T09:14:18.961Z,999.35
2023-08-30T09:17:25.694Z,999.33
2023-08-30T09:20:33.875Z,999.29
2023-08-30T09:23:40.988Z,999.31
2023-08-30T09:26:48.099Z,999.31
2023-08-30T09:29:57.137Z,999.27
2023-08-30T09:33:04.675Z,999.25
2023-08-30T09:36:11.749Z,999.27
2023-08-30T09:39:20.125Z,999.30
2023-08-30T09:42:27.287Z,999.17
2023-08-30T09:45:34.907Z,999.11
2023-08-30T09:48:43.497Z,999.13
2023-08-30T09:51:50.698Z,999.10
2023-08-30T09:54:57.712Z,999.02
2023-08-30T09:58:04.406Z,999.02
2023-08-30T10:01:13.607Z,998.98
2023-08-30T10:04:20.942Z,998.91
2023-08-30T10:08:05.845Z,998.93
2023-08-30T10:11:14.391Z,998.84
2023-08-30T10:14:21.920Z,998.81
2023-08-30T10:17:29.589Z,998.74
2023-08-30T10:20:39.015Z,998.73
2023-08-30T10:23:46.017Z,998.74
2023-08-30T10:26:53.651Z,998.71
2023-08-30T10:30:02.574Z,998.69
2023-08-30T10:33:11.082Z,998.73
2023-08-30T10:36:18.340Z,998.73
2023-08-30T10:39:27.839Z,998.70
2023-08-30T10:42:34.923Z,998.69
2023-08-30T10:45:42.369Z,998.68
2023-08-30T10:48:49.907Z,998.71
2023-08-30T10:51:58.541Z,998.62
2023-08-30T10:55:06.062Z,998.64
2023-08-30T10:58:14.161Z,998.70
2023-08-30T11:01:23.293Z,998.56
2023-08-30T11:04:30.000Z,998.63
2023-08-30T11:07:37.486Z,998.58
2023-08-30T11:10:45.726Z,998.59
2023-08-30T11:13:53.267Z,998.60
2023-08-30T11:17:00.572Z,998.51
2023-08-30T11:20:09.159Z,998.51
2023-08-30T11:23:16.949Z,998.49
2023-08-30T11:26:24.050Z,998.50
2023-08-30T11:29:31.507Z,998.48
2023-08-30T11:32:40.328Z,998.37
2023-08-30T11:35:48.405Z,998.46
2023-08-30T11:38:55.632Z,998.39
2023-08-30T11:42:17.070Z,998.33
2023-08-30T11:45:09.380Z,998.25
2023-08-30T11:48:16.114Z,998.26
2023-08-30T11:51:24.918Z,998.27
2023-08-30T11:54:32.510Z,998.22
2023-08-30T11:57:39.628Z,998.23
2023-08-30T12:00:48.013Z,998.24
2023-08-30T12:03:55.273Z,998.18
2023-08-30T12:07:02.957Z,998.12
2023-08-30T12:10:11.935Z,998.17
2023-08-30T12:13:18.938Z,998.06
2023-08-30T12:16:27.096Z,998.08
2023-08-30T12:19:33.846Z,997.97
2023-08-30T12:22:42.674Z,997.90
2023-08-30T12:25:50.163Z,997.92
2023-08-30T12:28:56.961Z,997.87
2023-08-30T12:32:05.933Z,997.81
2023-08-30T12:35:13.821Z,997.83
2023-08-30T12:38:21.474Z,997.79
2023-08-30T12:41:30.135Z,997.81
2023-08-30T12:44:38.187Z,997.76
2023-08-30T12:47:45.015Z,997.72
2023-08-30T12:50:54.195Z,997.59
2023-08-30T12:54:01.759Z,997.57
2023-08-30T12:57:08.495Z,997.47
2023-08-30T13:00:16.274Z,997.50
2023-08-30T13:03:42.455Z,997.54
2023-08-30T13:06:49.751Z,997.58
2023-08-30T13:09:56.899Z,997.56
2023-08-30T13:13:05.820Z,997.52
2023-08-30T13:16:13.068Z,997.47
2023-08-30T13:19:21.050Z,997.48
2023-08-30T13:22:29.252Z,997.44
2023-08-30T13:25:36.753Z,997.53
2023-08-30T13:28:44.417Z,997.44
2023-08-30T13:31:53.286Z,997.43
2023-08-30T13:35:00.929Z,997.48
2023-08-30T13:38:08.049Z,997.46
2023-08-30T13:41:15.678Z,997.36
2023-08-30T13:44:24.136Z,997.34
2023-08-30T13:47:31.790Z,997.29
2023-08-30T13:50:39.190Z,997.26
2023-08-30T13:53:47.770Z,997.24
2023-08-30T13:56:54.784Z,997.19
2023-08-30T14:00:02.186Z,997.15
2023-08-30T14:03:10.459Z,997.14
2023-08-30T14:06:18.486Z,997.15
2023-08-30T14:09:26.574Z,997.21
2023-08-30T14:12:35.000Z,997.18
2023-08-30T14:15:42.579Z,997.13
2023-08-30T14:18:50.701Z,997.12
2023-08-30T14:21:58.936Z,997.16
2023-08-30T14:25:12.148Z,997.19
2023-08-30T14:28:09.298Z,997.10
2023-08-30T14:31:20.092Z,997.14
2023-08-30T14:34:28.616Z,997.11
2023-08-30T14:37:37.215Z,997.10
2023-08-30T14:40:44.157Z,997.10
2023-08-30T14:43:53.349Z,997.08
2023-08-30T14:47:00.765Z,997.09
2023-08-30T14:50:07.396Z,997.08
2023-08-30T14:53:16.454Z,997.10
2023-08-30T14:56:24.029Z,997.09
2023-08-30T14:59:31.076Z,997.14
2023-08-30T15:02:39.436Z,997.09
2023-08-30T15:05:47.199Z,997.08
2023-08-30T15:08:54.403Z,997.13
2023-08-30T15:12:02.030Z,997.04
2023-08-30T15:15:10.146Z,997.03
2023-08-30T15:18:18.574Z,996.99
2023-08-30T15:21:26.252Z,997.03
2023-08-30T15:25:12.957Z,997.07
2023-08-30T15:28:20.467Z,997.03
2023-08-30T15:31:27.928Z,997.02
2023-08-30T15:34:37.382Z,997.00
2023-08-30T15:37:44.298Z,997.02
2023-08-30T15:40:52.647Z,997.05
2023-08-30T15:44:01.479Z,996.94
2023-08-30T15:47:09.191Z,997.02
2023-08-30T15:50:17.015Z,996.92
2023-08-30T15:53:25.731Z,996.91
2023-08-30T15:56:33.915Z,996.85
2023-08-30T15:59:41.360Z,996.90
2023-08-30T16:02:48.622Z,996.90
2023-08-30T16:05:58.251Z,996.83
2023-08-30T16:09:06.748Z,996.81
2023-08-30T16:12:14.608Z,996.86
2023-08-30T16:15:23.863Z,996.78
2023-08-30T16:18:31.303Z,996.82
2023-08-30T16:21:38.969Z,996.88
2023-08-30T16:24:47.082Z,996.87
2023-08-30T16:27:54.205Z,996.86
2023-08-30T16:31:01.799Z,996.89
2023-08-30T16:34:10.335Z,996.85
2023-08-30T16:37:18.054Z,996.85
2023-08-30T16:40:25.539Z,996.83
2023-08-30T16:43:32.167Z,996.85
2023-08-30T16:46:41.096Z,996.72
2023-08-30T16:49:48.738Z,996.74
2023-08-30T16:52:55.457Z,996.80
2023-08-30T16:56:04.836Z,996.80
2023-08-30T16:59:12.019Z,996.81
2023-08-30T17:02:19.226Z,996.79
2023-08-30T17:05:27.695Z,996.74
2023-08-30T17:08:35.414Z,996.76
2023-08-30T17:11:43.005Z,996.80
2023-08-30T17:14:51.118Z,996.86
2023-08-30T17:17:59.106Z,996.90
2023-08-30T17:21:06.268Z,996.88
2023-08-30T17:24:14.322Z,997.10
2023-08-30T17:27:22.425Z,997.31
2023-08-30T17:30:29.921Z,997.43
2023-08-30T17:33:36.887Z,997.46
2023-08-30T17:36:46.218Z,997.46
2023-08-30T17:39:52.889Z,997.48
2023-08-30T17:43:00.889Z,997.50
2023-08-30T17:46:10.000Z,997.58
2023-08-30T17:49:17.120Z,997.81
2023-08-30T17:52:24.884Z,997.97
2023-08-30T17:55:34.214Z,997.85
2023-08-30T17:58:41.169Z,997.87
2023-08-30T18:01:48.973Z,998.02
2023-08-30T18:04:57.981Z,998.07
2023-08-30T18:08:04.976Z,997.93
2023-08-30T18:11:12.384Z,997.97
2023-08-30T18:14:20.211Z,997.98
2023-08-30T18:17:28.878Z,997.89
2023-08-30T18:20:37.200Z,997.75
2023-08-30T18:23:44.829Z,997.84
2023-08-30T18:26:53.405Z,997.96
2023-08-30T18:30:00.947Z,998.02
2023-08-30T18:33:08.175Z,998.11
2023-08-30T18:36:16.294Z,998.12
2023-08-30T18:39:23.834Z,998.28
2023-08-30T18:42:31.183Z,998.25
2023-08-30T18:45:39.839Z,998.49
2023-08-30T18:48:47.359Z,998.41
2023-08-30T18:51:54.894Z,998.40
2023-08-30T18:55:02.235Z,998.47
2023-08-30T18:58:10.993Z,998.54
2023-08-30T19:01:18.596Z,998.59
2023-08-30T19:04:25.685Z,998.58
2023-08-30T19:07:34.910Z,998.49
2023-08-30T19:10:43.544Z,998.50
2023-08-30T19:13:51.709Z,998.48
2023-08-30T19:17:00.790Z,998.36
2023-08-30T19:20:08.403Z,998.27
2023-08-30T19:23:15.901Z,998.26
2023-08-30T19:26:25.898Z,998.25
2023-08-30T19:29:33.237Z,998.21
2023-08-30T19:32:39.888Z,998.28
2023-08-30T19:35:47.273Z,998.33
2023-08-30T19:38:55.865Z,998.29
2023-08-30T19:42:03.074Z,998.31
2023-08-30T19:45:10.848Z,998.30
2023-08-30T19:48:20.157Z,998.31
2023-08-30T19:51:27.926Z,998.26
2023-08-30T19:54:35.183Z,998.25
2023-08-30T19:57:44.636Z,998.24
2023-08-30T20:00:51.538Z,998.14
2023-08-30T20:03:58.344Z,998.26
2023-08-30T20:07:06.828Z,998.31
2023-08-30T20:10:14.727Z,998.19
2023-08-30T20:13:22.514Z,998.14
2023-08-30T20:16:29.817Z,998.23
2023-08-30T20:19:38.185Z,998.22
2023-08-30T20:22:45.858Z,998.21
2023-08-30T20:25:52.948Z,998.30
2023-08-30T20:29:02.042Z,998.35
2023-08-30T20:32:10.866Z,998.40
2023-08-30T20:35:20.731Z,998.37
2023-08-30T20:38:30.043Z,998.54
2023-08-30T20:41:37.760Z,998.71
2023-08-30T20:44:44.565Z,998.80
2023-08-30T20:47:53.213Z,998.91
2023-08-30T20:51:00.246Z,998.97
2023-08-30T20:54:06.996Z,998.98
2023-08-30T20:57:15.893Z,999.04
2023-08-30T21:00:23.004Z,999.01
2023-08-30T21:03:31.061Z,999.05
2023-08-30T21:06:39.434Z,999.08
2023-08-30T21:09:48.137Z,999.01
2023-08-30T21:15:55.122Z,998.87
2023-08-30T21:19:04.410Z,998.90
2023-08-30T21:22:11.798Z,998.88
2023-08-30T21:25:19.093Z,998.85
2023-08-30T21:28:27.756Z,998.78
2023-08-30T21:31:36.002Z,998.82
2023-08-30T21:34:44.060Z,998.87
2023-08-30T21:37:52.812Z,998.83
2023-08-30T21:41:00.077Z,998.90
2023-08-30T21:44:07.270Z,998.89
2023-08-30T21:47:14.334Z,998.83
2023-08-30T21:50:22.929Z,998.89
2023-08-30T21:53:30.507Z,998.87
2023-08-30T21:56:39.135Z,998.80
2023-08-30T21:59:48.022Z,998.98
2023-08-30T22:02:55.788Z,999.00
2023-08-30T22:06:02.716Z,999.00
2023-08-30T22:09:11.665Z,999.01
2023-08-30T22:12:18.482Z,998.89
2023-08-30T22:15:26.334Z,998.84
2023-08-30T22:18:34.401Z,998.84
2023-08-30T22:21:41.947Z,998.83
2023-08-30T22:24:49.238Z,999.06
2023-08-30T22:27:56.328Z,998.96
2023-08-30T22:31:05.499Z,998.87
2023-08-30T22:34:12.543Z,998.97
2023-08-30T22:37:20.068Z,998.93
2023-08-30T22:40:29.088Z,998.82
2023-08-30T22:43:36.731Z,998.85
2023-08-30T22:46:43.561Z,998.86
2023-08-30T22:49:53.589Z,998.80
2023-08-30T22:53:00.802Z,998.78
2023-08-30T22:56:08.517Z,998.76
2023-08-30T22:59:17.270Z,998.72
2023-08-30T23:02:24.984Z,998.68
2023-08-30T23:05:32.162Z,998.73
2023-08-30T23:08:39.693Z,998.72
2023-08-30T23:11:49.754Z,998.72
2023-08-30T23:14:56.987Z,998.66
2023-08-30T23:18:04.706Z,998.67
2023-08-30T23:21:13.390Z,998.62
2023-08-30T23:24:20.728Z,998.61
2023-08-30T23:27:27.986Z,998.63
2023-08-30T23:30:36.837Z,998.52
2023-08-30T23:33:43.997Z,998.62
2023-08-30T23:36:51.649Z,998.63
2023-08-30T23:39:59.882Z,998.70
2023-08-30T23:43:07.459Z,998.75
2023-08-30T23:46:14.608Z,998.81
2023-08-30T23:49:23.099Z,998.88
2023-08-30T23:52:32.564Z,998.85
2023-08-30T23:55:40.707Z,998.91
2023-08-30T23:58:48.862Z,998.90
